sensor_id;sensor_type;location;lat;lon;timestamp;P1;durP1;ratioP1;P2;durP2;ratioP2
47219;SDS011;32961;51.936;4.788;2023-03-14T00:00:05;25.60;;;4.65;;
47219;SDS011;32961;51.936;4.788;2023-03-14T00:02:37;16.08;;;3.40;;
47219;SDS011;32961;51.936;4.788;2023-03-14T00:05:06;16.73;;;2.95;;
47219;SDS011;32961;51.936;4.788;2023-03-14T00:07:36;20.08;;;4.63;;
47219;SDS011;32961;51.936;4.788;2023-03-14T00:10:08;18.02;;;3.38;;
47219;SDS011;32961;51.936;4.788;2023-03-14T00:12:39;13.55;;;2.60;;
47219;SDS011;32961;51.936;4.788;2023-03-14T00:15:07;15.65;;;2.63;;
47219;SDS011;32961;51.936;4.788;2023-03-14T00:17:38;15.38;;;3.35;;
47219;SDS011;32961;51.936;4.788;2023-03-14T00:20:06;11.85;;;2.30;;
47219;SDS011;32961;51.936;4.788;2023-03-14T00:22:37;13.93;;;2.30;;
47219;SDS011;32961;51.936;4.788;2023-03-14T00:25:06;18.65;;;2.67;;
47219;SDS011;32961;51.936;4.788;2023-03-14T00:27:35;13.18;;;2.92;;
47219;SDS011;32961;51.936;4.788;2023-03-14T00:30:04;17.05;;;3.25;;
47219;SDS011;32961;51.936;4.788;2023-03-14T00:32:34;18.08;;;3.30;;
47219;SDS011;32961;51.936;4.788;2023-03-14T00:35:04;13.40;;;2.78;;
47219;SDS011;32961;51.936;4.788;2023-03-14T00:37:32;15.70;;;3.00;;
47219;SDS011;32961;51.936;4.788;2023-03-14T00:40:00;15.55;;;3.08;;
47219;SDS011;32961;51.936;4.788;2023-03-14T00:42:28;15.45;;;2.97;;
47219;SDS011;32961;51.936;4.788;2023-03-14T00:44:56;19.55;;;3.38;;
47219;SDS011;32961;51.936;4.788;2023-03-14T00:47:23;12.98;;;2.90;;
47219;SDS011;32961;51.936;4.788;2023-03-14T00:49:51;11.82;;;2.72;;
47219;SDS011;32961;51.936;4.788;2023-03-14T00:52:21;11.18;;;2.70;;
47219;SDS011;32961;51.936;4.788;2023-03-14T00:54:49;16.13;;;4.82;;
47219;SDS011;32961;51.936;4.788;2023-03-14T00:57:16;8.25;;;2.40;;
47219;SDS011;32961;51.936;4.788;2023-03-14T00:59:44;15.85;;;2.72;;
47219;SDS011;32961;51.936;4.788;2023-03-14T01:02:12;20.75;;;3.00;;
47219;SDS011;32961;51.936;4.788;2023-03-14T01:04:40;14.30;;;2.67;;
47219;SDS011;32961;51.936;4.788;2023-03-14T01:07:09;22.65;;;2.65;;
47219;SDS011;32961;51.936;4.788;2023-03-14T01:09:38;15.88;;;2.72;;
47219;SDS011;32961;51.936;4.788;2023-03-14T01:12:06;16.88;;;2.58;;
47219;SDS011;32961;51.936;4.788;2023-03-14T01:14:34;13.13;;;2.50;;
47219;SDS011;32961;51.936;4.788;2023-03-14T01:17:02;15.90;;;3.55;;
47219;SDS011;32961;51.936;4.788;2023-03-14T01:19:30;16.60;;;2.70;;
47219;SDS011;32961;51.936;4.788;2023-03-14T01:21:57;17.02;;;3.08;;
47219;SDS011;32961;51.936;4.788;2023-03-14T01:24:26;14.13;;;2.47;;
47219;SDS011;32961;51.936;4.788;2023-03-14T01:26:55;16.02;;;3.03;;
47219;SDS011;32961;51.936;4.788;2023-03-14T01:29:23;16.85;;;2.05;;
47219;SDS011;32961;51.936;4.788;2023-03-14T01:31:50;20.80;;;3.13;;
47219;SDS011;32961;51.936;4.788;2023-03-14T01:34:19;13.90;;;2.45;;
47219;SDS011;32961;51.936;4.788;2023-03-14T01:36:46;13.70;;;2.65;;
47219;SDS011;32961;51.936;4.788;2023-03-14T01:39:14;13.20;;;2.13;;
47219;SDS011;32961;51.936;4.788;2023-03-14T01:41:42;8.95;;;2.03;;
47219;SDS011;32961;51.936;4.788;2023-03-14T01:44:12;19.23;;;2.88;;
47219;SDS011;32961;51.936;4.788;2023-03-14T01:46:40;15.13;;;2.50;;
47219;SDS011;32961;51.936;4.788;2023-03-14T01:51:57;17.17;;;2.03;;
47219;SDS011;32961;51.936;4.788;2023-03-14T01:54:30;12.50;;;2.13;;
47219;SDS011;32961;51.936;4.788;2023-03-14T01:57:03;14.43;;;2.40;;
47219;SDS011;32961;51.936;4.788;2023-03-14T01:59:35;13.68;;;2.30;;
47219;SDS011;32961;51.936;4.788;2023-03-14T02:02:05;12.75;;;2.50;;
47219;SDS011;32961;51.936;4.788;2023-03-14T02:04:37;9.40;;;2.28;;
47219;SDS011;32961;51.936;4.788;2023-03-14T02:07:10;18.75;;;2.60;;
47219;SDS011;32961;51.936;4.788;2023-03-14T02:09:42;15.73;;;2.42;;
47219;SDS011;32961;51.936;4.788;2023-03-14T02:12:11;14.85;;;2.28;;
47219;SDS011;32961;51.936;4.788;2023-03-14T02:14:45;14.52;;;2.78;;
47219;SDS011;32961;51.936;4.788;2023-03-14T02:17:14;11.20;;;2.92;;
47219;SDS011;32961;51.936;4.788;2023-03-14T02:19:52;16.23;;;2.78;;
47219;SDS011;32961;51.936;4.788;2023-03-14T02:22:31;12.27;;;2.20;;
47219;SDS011;32961;51.936;4.788;2023-03-14T02:25:02;11.30;;;2.10;;
47219;SDS011;32961;51.936;4.788;2023-03-14T02:27:37;13.27;;;2.45;;
47219;SDS011;32961;51.936;4.788;2023-03-14T02:30:06;15.80;;;2.33;;
47219;SDS011;32961;51.936;4.788;2023-03-14T02:32:37;13.18;;;2.20;;
47219;SDS011;32961;51.936;4.788;2023-03-14T02:35:10;12.82;;;3.38;;
47219;SDS011;32961;51.936;4.788;2023-03-14T02:37:41;9.65;;;2.25;;
47219;SDS011;32961;51.936;4.788;2023-03-14T02:40:13;18.83;;;3.30;;
47219;SDS011;32961;51.936;4.788;2023-03-14T02:42:43;14.00;;;3.00;;
47219;SDS011;32961;51.936;4.788;2023-03-14T02:45:33;14.60;;;3.80;;
47219;SDS011;32961;51.936;4.788;2023-03-14T02:48:10;17.20;;;3.10;;
47219;SDS011;32961;51.936;4.788;2023-03-14T02:50:41;11.23;;;3.33;;
47219;SDS011;32961;51.936;4.788;2023-03-14T02:53:11;17.58;;;3.30;;
47219;SDS011;32961;51.936;4.788;2023-03-14T02:55:44;13.35;;;2.35;;
47219;SDS011;32961;51.936;4.788;2023-03-14T02:58:15;19.95;;;3.70;;
47219;SDS011;32961;51.936;4.788;2023-03-14T03:00:43;16.75;;;2.78;;
47219;SDS011;32961;51.936;4.788;2023-03-14T03:03:11;13.88;;;3.50;;
47219;SDS011;32961;51.936;4.788;2023-03-14T03:05:39;13.48;;;2.75;;
47219;SDS011;32961;51.936;4.788;2023-03-14T03:08:07;12.02;;;3.28;;
47219;SDS011;32961;51.936;4.788;2023-03-14T03:10:35;15.00;;;4.45;;
47219;SDS011;32961;51.936;4.788;2023-03-14T03:13:03;29.20;;;5.30;;
47219;SDS011;32961;51.936;4.788;2023-03-14T03:15:33;14.32;;;2.22;;
47219;SDS011;32961;51.936;4.788;2023-03-14T03:18:00;16.92;;;3.38;;
47219;SDS011;32961;51.936;4.788;2023-03-14T03:20:28;18.40;;;2.70;;
47219;SDS011;32961;51.936;4.788;2023-03-14T03:22:56;12.85;;;2.75;;
47219;SDS011;32961;51.936;4.788;2023-03-14T03:25:24;18.85;;;3.25;;
47219;SDS011;32961;51.936;4.788;2023-03-14T03:27:51;17.65;;;3.00;;
47219;SDS011;32961;51.936;4.788;2023-03-14T03:30:20;17.35;;;3.08;;
47219;SDS011;32961;51.936;4.788;2023-03-14T03:32:49;19.35;;;2.67;;
47219;SDS011;32961;51.936;4.788;2023-03-14T03:35:17;12.88;;;2.60;;
47219;SDS011;32961;51.936;4.788;2023-03-14T03:37:45;11.35;;;2.72;;
47219;SDS011;32961;51.936;4.788;2023-03-14T03:40:13;14.00;;;2.70;;
47219;SDS011;32961;51.936;4.788;2023-03-14T03:42:41;14.02;;;2.53;;
47219;SDS011;32961;51.936;4.788;2023-03-14T03:45:09;8.68;;;2.15;;
47219;SDS011;32961;51.936;4.788;2023-03-14T03:47:37;14.25;;;2.80;;
47219;SDS011;32961;51.936;4.788;2023-03-14T03:50:07;20.35;;;3.05;;
47219;SDS011;32961;51.936;4.788;2023-03-14T03:52:35;16.15;;;2.75;;
47219;SDS011;32961;51.936;4.788;2023-03-14T03:55:03;11.52;;;2.60;;
47219;SDS011;32961;51.936;4.788;2023-03-14T03:57:31;12.45;;;2.78;;
47219;SDS011;32961;51.936;4.788;2023-03-14T03:59:59;12.65;;;2.55;;
47219;SDS011;32961;51.936;4.788;2023-03-14T04:02:27;11.90;;;2.63;;
47219;SDS011;32961;51.936;4.788;2023-03-14T04:04:55;13.77;;;2.80;;
47219;SDS011;32961;51.936;4.788;2023-03-14T04:07:24;16.83;;;3.15;;
47219;SDS011;32961;51.936;4.788;2023-03-14T04:09:52;13.93;;;2.20;;
47219;SDS011;32961;51.936;4.788;2023-03-14T04:12:20;17.45;;;2.50;;
47219;SDS011;32961;51.936;4.788;2023-03-14T04:14:48;14.20;;;2.25;;
47219;SDS011;32961;51.936;4.788;2023-03-14T04:17:16;13.15;;;2.25;;
47219;SDS011;32961;51.936;4.788;2023-03-14T04:19:44;17.90;;;2.28;;
47219;SDS011;32961;51.936;4.788;2023-03-14T04:22:12;11.43;;;2.58;;
47219;SDS011;32961;51.936;4.788;2023-03-14T04:24:41;10.73;;;2.50;;
47219;SDS011;32961;51.936;4.788;2023-03-14T04:27:09;9.52;;;2.10;;
47219;SDS011;32961;51.936;4.788;2023-03-14T04:29:37;13.98;;;2.38;;
47219;SDS011;32961;51.936;4.788;2023-03-14T04:32:05;13.15;;;2.15;;
47219;SDS011;32961;51.936;4.788;2023-03-14T04:34:33;12.52;;;2.63;;
47219;SDS011;32961;51.936;4.788;2023-03-14T04:37:00;11.32;;;1.95;;
47219;SDS011;32961;51.936;4.788;2023-03-14T04:39:28;14.90;;;2.58;;
47219;SDS011;32961;51.936;4.788;2023-03-14T04:41:57;10.13;;;2.75;;
47219;SDS011;32961;51.936;4.788;2023-03-14T04:44:25;8.55;;;2.10;;
47219;SDS011;32961;51.936;4.788;2023-03-14T04:46:53;8.27;;;2.17;;
47219;SDS011;32961;51.936;4.788;2023-03-14T04:49:21;8.65;;;2.05;;
47219;SDS011;32961;51.936;4.788;2023-03-14T04:51:49;12.43;;;2.63;;
47219;SDS011;32961;51.936;4.788;2023-03-14T04:54:17;12.48;;;2.15;;
47219;SDS011;32961;51.936;4.788;2023-03-14T04:56:45;9.75;;;1.83;;
47219;SDS011;32961;51.936;4.788;2023-03-14T04:59:14;11.65;;;3.10;;
47219;SDS011;32961;51.936;4.788;2023-03-14T05:01:42;8.23;;;1.95;;
47219;SDS011;32961;51.936;4.788;2023-03-14T05:04:10;8.98;;;2.67;;
47219;SDS011;32961;51.936;4.788;2023-03-14T05:06:38;6.68;;;1.60;;
47219;SDS011;32961;51.936;4.788;2023-03-14T05:09:06;9.40;;;1.60;;
47219;SDS011;32961;51.936;4.788;2023-03-14T05:11:34;8.18;;;1.70;;
47219;SDS011;32961;51.936;4.788;2023-03-14T05:14:01;8.95;;;1.67;;
47219;SDS011;32961;51.936;4.788;2023-03-14T05:16:31;6.03;;;2.08;;
47219;SDS011;32961;51.936;4.788;2023-03-14T05:18:59;10.93;;;2.15;;
47219;SDS011;32961;51.936;4.788;2023-03-14T05:21:27;13.77;;;2.78;;
47219;SDS011;32961;51.936;4.788;2023-03-14T05:24:01;9.45;;;3.83;;
47219;SDS011;32961;51.936;4.788;2023-03-14T05:26:29;8.05;;;2.70;;
47219;SDS011;32961;51.936;4.788;2023-03-14T05:28:57;9.10;;;3.97;;
47219;SDS011;32961;51.936;4.788;2023-03-14T05:31:25;9.20;;;3.30;;
47219;SDS011;32961;51.936;4.788;2023-03-14T05:33:54;5.78;;;2.40;;
47219;SDS011;32961;51.936;4.788;2023-03-14T05:36:22;10.55;;;2.72;;
47219;SDS011;32961;51.936;4.788;2023-03-14T05:38:49;13.30;;;3.88;;
47219;SDS011;32961;51.936;4.788;2023-03-14T05:41:17;12.65;;;3.38;;
47219;SDS011;32961;51.936;4.788;2023-03-14T05:43:45;6.95;;;2.88;;
47219;SDS011;32961;51.936;4.788;2023-03-14T05:46:13;9.80;;;2.95;;
47219;SDS011;32961;51.936;4.788;2023-03-14T05:48:41;10.40;;;2.80;;
47219;SDS011;32961;51.936;4.788;2023-03-14T05:51:10;8.15;;;2.85;;
47219;SDS011;32961;51.936;4.788;2023-03-14T05:53:38;9.43;;;3.10;;
47219;SDS011;32961;51.936;4.788;2023-03-14T05:56:06;10.63;;;4.82;;
47219;SDS011;32961;51.936;4.788;2023-03-14T05:58:35;20.52;;;4.22;;
47219;SDS011;32961;51.936;4.788;2023-03-14T06:01:02;6.40;;;1.90;;
47219;SDS011;32961;51.936;4.788;2023-03-14T06:03:31;7.05;;;1.83;;
47219;SDS011;32961;51.936;4.788;2023-03-14T06:06:00;7.78;;;2.13;;
47219;SDS011;32961;51.936;4.788;2023-03-14T06:08:29;8.18;;;1.67;;
47219;SDS011;32961;51.936;4.788;2023-03-14T06:10:57;4.05;;;1.40;;
47219;SDS011;32961;51.936;4.788;2023-03-14T06:13:25;9.02;;;1.20;;
47219;SDS011;32961;51.936;4.788;2023-03-14T06:15:53;5.88;;;1.65;;
47219;SDS011;32961;51.936;4.788;2023-03-14T06:18:21;11.18;;;1.35;;
47219;SDS011;32961;51.936;4.788;2023-03-14T06:20:48;3.75;;;1.00;;
47219;SDS011;32961;51.936;4.788;2023-03-14T06:23:16;5.75;;;1.00;;
47219;SDS011;32961;51.936;4.788;2023-03-14T06:25:45;4.93;;;1.55;;
47219;SDS011;32961;51.936;4.788;2023-03-14T06:28:13;9.57;;;1.00;;
47219;SDS011;32961;51.936;4.788;2023-03-14T06:30:41;5.00;;;1.40;;
47219;SDS011;32961;51.936;4.788;2023-03-14T06:33:09;5.32;;;1.80;;
47219;SDS011;32961;51.936;4.788;2023-03-14T06:35:37;6.43;;;1.65;;
47219;SDS011;32961;51.936;4.788;2023-03-14T06:38:04;9.07;;;1.08;;
47219;SDS011;32961;51.936;4.788;2023-03-14T06:40:33;7.90;;;1.45;;
47219;SDS011;32961;51.936;4.788;2023-03-14T06:43:02;6.55;;;1.15;;
47219;SDS011;32961;51.936;4.788;2023-03-14T06:45:29;10.45;;;2.88;;
47219;SDS011;32961;51.936;4.788;2023-03-14T06:47:57;8.65;;;2.15;;
47219;SDS011;32961;51.936;4.788;2023-03-14T06:50:25;9.70;;;1.20;;
47219;SDS011;32961;51.936;4.788;2023-03-14T06:52:53;3.72;;;1.50;;
47219;SDS011;32961;51.936;4.788;2023-03-14T06:55:21;5.63;;;1.15;;
47219;SDS011;32961;51.936;4.788;2023-03-14T06:57:51;4.60;;;1.10;;
47219;SDS011;32961;51.936;4.788;2023-03-14T07:03:31;6.97;;;2.03;;
47219;SDS011;32961;51.936;4.788;2023-03-14T07:05:59;4.65;;;1.27;;
47219;SDS011;32961;51.936;4.788;2023-03-14T07:08:27;6.68;;;1.17;;
47219;SDS011;32961;51.936;4.788;2023-03-14T07:10:56;4.07;;;1.10;;
47219;SDS011;32961;51.936;4.788;2023-03-14T07:13:24;7.05;;;0.80;;
47219;SDS011;32961;51.936;4.788;2023-03-14T07:15:53;7.97;;;1.20;;
47219;SDS011;32961;51.936;4.788;2023-03-14T07:18:21;4.07;;;1.00;;
47219;SDS011;32961;51.936;4.788;2023-03-14T07:20:49;9.30;;;1.42;;
47219;SDS011;32961;51.936;4.788;2023-03-14T07:23:17;8.27;;;1.48;;
47219;SDS011;32961;51.936;4.788;2023-03-14T07:25:44;10.10;;;1.63;;
47219;SDS011;32961;51.936;4.788;2023-03-14T07:28:12;7.63;;;1.33;;
47219;SDS011;32961;51.936;4.788;2023-03-14T07:30:40;8.05;;;1.02;;
47219;SDS011;32961;51.936;4.788;2023-03-14T07:33:09;11.60;;;1.60;;
47219;SDS011;32961;51.936;4.788;2023-03-14T07:35:37;12.07;;;1.55;;
47219;SDS011;32961;51.936;4.788;2023-03-14T07:38:05;3.45;;;1.08;;
47219;SDS011;32961;51.936;4.788;2023-03-14T07:40:33;14.75;;;2.22;;
47219;SDS011;32961;51.936;4.788;2023-03-14T07:43:00;10.57;;;1.67;;
47219;SDS011;32961;51.936;4.788;2023-03-14T07:45:31;9.35;;;1.70;;
47219;SDS011;32961;51.936;4.788;2023-03-14T07:48:07;10.18;;;1.70;;
47219;SDS011;32961;51.936;4.788;2023-03-14T07:50:37;14.75;;;3.20;;
47219;SDS011;32961;51.936;4.788;2023-03-14T07:53:05;12.15;;;1.77;;
47219;SDS011;32961;51.936;4.788;2023-03-14T07:55:33;10.63;;;2.03;;
47219;SDS011;32961;51.936;4.788;2023-03-14T07:58:01;10.90;;;2.97;;
47219;SDS011;32961;51.936;4.788;2023-03-14T08:00:29;9.90;;;1.90;;
47219;SDS011;32961;51.936;4.788;2023-03-14T08:02:56;14.10;;;1.58;;
47219;SDS011;32961;51.936;4.788;2023-03-14T08:05:24;10.20;;;1.55;;
47219;SDS011;32961;51.936;4.788;2023-03-14T08:07:53;2.88;;;1.08;;
47219;SDS011;32961;51.936;4.788;2023-03-14T08:10:21;8.23;;;1.92;;
47219;SDS011;32961;51.936;4.788;2023-03-14T08:12:49;3.60;;;0.90;;
47219;SDS011;32961;51.936;4.788;2023-03-14T08:15:17;5.22;;;1.58;;
47219;SDS011;32961;51.936;4.788;2023-03-14T08:17:45;11.02;;;1.98;;
47219;SDS011;32961;51.936;4.788;2023-03-14T08:20:17;7.70;;;1.85;;
47219;SDS011;32961;51.936;4.788;2023-03-14T08:22:45;10.23;;;2.10;;
47219;SDS011;32961;51.936;4.788;2023-03-14T08:25:14;5.47;;;1.38;;
47219;SDS011;32961;51.936;4.788;2023-03-14T08:27:43;9.07;;;1.60;;
47219;SDS011;32961;51.936;4.788;2023-03-14T08:30:12;10.70;;;1.50;;
47219;SDS011;32961;51.936;4.788;2023-03-14T08:32:42;5.68;;;1.40;;
47219;SDS011;32961;51.936;4.788;2023-03-14T08:35:10;8.02;;;1.10;;
47219;SDS011;32961;51.936;4.788;2023-03-14T08:37:38;8.23;;;1.50;;
47219;SDS011;32961;51.936;4.788;2023-03-14T08:40:07;9.95;;;1.45;;
47219;SDS011;32961;51.936;4.788;2023-03-14T08:42:39;11.68;;;1.30;;
47219;SDS011;32961;51.936;4.788;2023-03-14T08:45:08;6.30;;;1.25;;
47219;SDS011;32961;51.936;4.788;2023-03-14T08:47:38;8.45;;;1.33;;
47219;SDS011;32961;51.936;4.788;2023-03-14T08:50:06;6.43;;;1.98;;
47219;SDS011;32961;51.936;4.788;2023-03-14T08:52:35;6.88;;;1.50;;
47219;SDS011;32961;51.936;4.788;2023-03-14T08:55:04;10.35;;;1.58;;
47219;SDS011;32961;51.936;4.788;2023-03-14T08:57:32;5.80;;;1.20;;
47219;SDS011;32961;51.936;4.788;2023-03-14T09:00:02;9.02;;;1.20;;
47219;SDS011;32961;51.936;4.788;2023-03-14T09:02:34;8.38;;;1.27;;
47219;SDS011;32961;51.936;4.788;2023-03-14T09:05:02;9.60;;;1.90;;
47219;SDS011;32961;51.936;4.788;2023-03-14T09:07:30;8.85;;;1.45;;
47219;SDS011;32961;51.936;4.788;2023-03-14T09:09:58;9.93;;;2.10;;
47219;SDS011;32961;51.936;4.788;2023-03-14T09:12:26;10.07;;;1.83;;
47219;SDS011;32961;51.936;4.788;2023-03-14T09:14:53;5.68;;;1.17;;
47219;SDS011;32961;51.936;4.788;2023-03-14T09:17:23;11.60;;;1.50;;
47219;SDS011;32961;51.936;4.788;2023-03-14T09:19:51;6.93;;;1.33;;
47219;SDS011;32961;51.936;4.788;2023-03-14T09:22:18;9.00;;;1.65;;
47219;SDS011;32961;51.936;4.788;2023-03-14T09:24:46;6.68;;;1.58;;
47219;SDS011;32961;51.936;4.788;2023-03-14T09:27:14;11.57;;;2.03;;
47219;SDS011;32961;51.936;4.788;2023-03-14T09:29:43;11.00;;;2.22;;
47219;SDS011;32961;51.936;4.788;2023-03-14T09:32:11;14.52;;;2.15;;
47219;SDS011;32961;51.936;4.788;2023-03-14T09:34:40;13.32;;;2.90;;
47219;SDS011;32961;51.936;4.788;2023-03-14T09:37:08;11.38;;;2.25;;
47219;SDS011;32961;51.936;4.788;2023-03-14T09:39:36;19.63;;;2.20;;
47219;SDS011;32961;51.936;4.788;2023-03-14T09:42:04;18.38;;;3.05;;
47219;SDS011;32961;51.936;4.788;2023-03-14T09:44:35;23.70;;;3.55;;
47219;SDS011;32961;51.936;4.788;2023-03-14T09:47:12;14.50;;;2.88;;
47219;SDS011;32961;51.936;4.788;2023-03-14T09:49:43;14.35;;;2.65;;
47219;SDS011;32961;51.936;4.788;2023-03-14T09:52:11;20.38;;;3.38;;
47219;SDS011;32961;51.936;4.788;2023-03-14T09:54:42;23.65;;;3.97;;
47219;SDS011;32961;51.936;4.788;2023-03-14T09:57:13;24.92;;;3.47;;
47219;SDS011;32961;51.936;4.788;2023-03-14T09:59:44;21.13;;;3.25;;
47219;SDS011;32961;51.936;4.788;2023-03-14T10:02:18;18.88;;;3.00;;
47219;SDS011;32961;51.936;4.788;2023-03-14T10:04:49;21.52;;;5.72;;
47219;SDS011;32961;51.936;4.788;2023-03-14T10:07:19;32.00;;;4.25;;
47219;SDS011;32961;51.936;4.788;2023-03-14T10:09:50;28.85;;;6.15;;
47219;SDS011;32961;51.936;4.788;2023-03-14T10:12:19;30.65;;;5.85;;
47219;SDS011;32961;51.936;4.788;2023-03-14T10:14:57;33.67;;;8.38;;
47219;SDS011;32961;51.936;4.788;2023-03-14T10:17:37;35.75;;;7.72;;
47219;SDS011;32961;51.936;4.788;2023-03-14T10:20:14;38.22;;;8.13;;
47219;SDS011;32961;51.936;4.788;2023-03-14T10:22:59;33.58;;;7.30;;
47219;SDS011;32961;51.936;4.788;2023-03-14T10:25:31;38.58;;;7.03;;
47219;SDS011;32961;51.936;4.788;2023-03-14T10:28:04;40.92;;;8.18;;
47219;SDS011;32961;51.936;4.788;2023-03-14T10:30:34;36.70;;;6.53;;
47219;SDS011;32961;51.936;4.788;2023-03-14T10:33:19;37.97;;;5.57;;
47219;SDS011;32961;51.936;4.788;2023-03-14T10:35:53;26.08;;;5.47;;
47219;SDS011;32961;51.936;4.788;2023-03-14T10:38:23;37.90;;;5.00;;
47219;SDS011;32961;51.936;4.788;2023-03-14T10:40:53;22.25;;;3.50;;
47219;SDS011;32961;51.936;4.788;2023-03-14T10:43:23;30.35;;;4.32;;
47219;SDS011;32961;51.936;4.788;2023-03-14T10:45:54;30.63;;;3.70;;
47219;SDS011;32961;51.936;4.788;2023-03-14T10:48:28;26.52;;;3.85;;
47219;SDS011;32961;51.936;4.788;2023-03-14T10:51:03;23.77;;;4.35;;
47219;SDS011;32961;51.936;4.788;2023-03-14T10:53:33;32.17;;;5.05;;
47219;SDS011;32961;51.936;4.788;2023-03-14T10:56:13;30.25;;;5.78;;
47219;SDS011;32961;51.936;4.788;2023-03-14T10:58:42;28.75;;;5.30;;
47219;SDS011;32961;51.936;4.788;2023-03-14T11:01:14;35.08;;;4.70;;
47219;SDS011;32961;51.936;4.788;2023-03-14T11:04:01;32.83;;;4.00;;
47219;SDS011;32961;51.936;4.788;2023-03-14T11:06:40;33.30;;;4.45;;
47219;SDS011;32961;51.936;4.788;2023-03-14T11:09:12;22.55;;;4.40;;
47219;SDS011;32961;51.936;4.788;2023-03-14T11:11:48;30.25;;;3.92;;
47219;SDS011;32961;51.936;4.788;2023-03-14T11:14:18;38.55;;;6.07;;
47219;SDS011;32961;51.936;4.788;2023-03-14T11:16:53;26.05;;;5.15;;
47219;SDS011;32961;51.936;4.788;2023-03-14T11:19:32;31.27;;;5.93;;
47219;SDS011;32961;51.936;4.788;2023-03-14T11:22:23;34.63;;;6.38;;
47219;SDS011;32961;51.936;4.788;2023-03-14T11:25:18;20.15;;;3.88;;
47219;SDS011;32961;51.936;4.788;2023-03-14T11:27:53;18.35;;;3.65;;
47219;SDS011;32961;51.936;4.788;2023-03-14T11:30:30;24.73;;;5.15;;
47219;SDS011;32961;51.936;4.788;2023-03-14T11:33:03;32.05;;;5.53;;
47219;SDS011;32961;51.936;4.788;2023-03-14T11:35:41;18.70;;;3.30;;
47219;SDS011;32961;51.936;4.788;2023-03-14T11:38:18;23.25;;;3.45;;
47219;SDS011;32961;51.936;4.788;2023-03-14T11:40:57;21.83;;;3.70;;
47219;SDS011;32961;51.936;4.788;2023-03-14T11:43:28;17.88;;;3.10;;
47219;SDS011;32961;51.936;4.788;2023-03-14T11:46:01;22.90;;;3.28;;
47219;SDS011;32961;51.936;4.788;2023-03-14T11:48:40;21.40;;;3.08;;
47219;SDS011;32961;51.936;4.788;2023-03-14T11:51:14;16.83;;;2.92;;
47219;SDS011;32961;51.936;4.788;2023-03-14T11:53:57;18.08;;;2.75;;
47219;SDS011;32961;51.936;4.788;2023-03-14T11:56:33;12.85;;;2.92;;
47219;SDS011;32961;51.936;4.788;2023-03-14T11:59:05;8.95;;;2.55;;
47219;SDS011;32961;51.936;4.788;2023-03-14T12:01:44;13.35;;;2.75;;
47219;SDS011;32961;51.936;4.788;2023-03-14T12:04:21;7.80;;;1.70;;
47219;SDS011;32961;51.936;4.788;2023-03-14T12:06:57;16.50;;;2.92;;
47219;SDS011;32961;51.936;4.788;2023-03-14T12:09:32;12.15;;;3.38;;
47219;SDS011;32961;51.936;4.788;2023-03-14T12:12:01;15.05;;;3.05;;
47219;SDS011;32961;51.936;4.788;2023-03-14T12:14:33;12.57;;;2.30;;
47219;SDS011;32961;51.936;4.788;2023-03-14T12:17:04;19.13;;;2.80;;
47219;SDS011;32961;51.936;4.788;2023-03-14T12:19:46;19.67;;;4.17;;
47219;SDS011;32961;51.936;4.788;2023-03-14T12:24:50;18.20;;;2.97;;
47219;SDS011;32961;51.936;4.788;2023-03-14T12:30:15;21.27;;;3.13;;
47219;SDS011;32961;51.936;4.788;2023-03-14T12:36:11;14.55;;;3.42;;
47219;SDS011;32961;51.936;4.788;2023-03-14T12:38:55;14.45;;;2.40;;
47219;SDS011;32961;51.936;4.788;2023-03-14T12:41:40;14.55;;;2.25;;
47219;SDS011;32961;51.936;4.788;2023-03-14T12:50:26;17.45;;;3.03;;
47219;SDS011;32961;51.936;4.788;2023-03-14T12:53:09;15.60;;;2.15;;
47219;SDS011;32961;51.936;4.788;2023-03-14T12:55:49;16.77;;;2.30;;
47219;SDS011;32961;51.936;4.788;2023-03-14T12:58:28;15.00;;;3.20;;
47219;SDS011;32961;51.936;4.788;2023-03-14T13:01:03;17.67;;;2.17;;
47219;SDS011;32961;51.936;4.788;2023-03-14T13:03:38;16.13;;;2.42;;
47219;SDS011;32961;51.936;4.788;2023-03-14T13:06:11;16.95;;;2.65;;
47219;SDS011;32961;51.936;4.788;2023-03-14T13:08:39;13.50;;;2.30;;
47219;SDS011;32961;51.936;4.788;2023-03-14T13:11:09;13.70;;;2.58;;
47219;SDS011;32961;51.936;4.788;2023-03-14T13:13:46;14.45;;;2.17;;
47219;SDS011;32961;51.936;4.788;2023-03-14T13:16:16;12.52;;;1.75;;
47219;SDS011;32961;51.936;4.788;2023-03-14T13:18:46;11.68;;;1.83;;
47219;SDS011;32961;51.936;4.788;2023-03-14T13:21:16;4.97;;;1.55;;
47219;SDS011;32961;51.936;4.788;2023-03-14T13:23:56;10.30;;;1.80;;
47219;SDS011;32961;51.936;4.788;2023-03-14T13:26:25;11.70;;;1.90;;
47219;SDS011;32961;51.936;4.788;2023-03-14T13:29:09;12.88;;;2.30;;
47219;SDS011;32961;51.936;4.788;2023-03-14T13:31:43;10.48;;;1.80;;
47219;SDS011;32961;51.936;4.788;2023-03-14T13:34:13;12.23;;;1.85;;
47219;SDS011;32961;51.936;4.788;2023-03-14T13:36:41;9.65;;;1.60;;
47219;SDS011;32961;51.936;4.788;2023-03-14T13:39:09;9.52;;;1.67;;
47219;SDS011;32961;51.936;4.788;2023-03-14T13:41:41;11.10;;;1.88;;
47219;SDS011;32961;51.936;4.788;2023-03-14T13:44:15;13.43;;;2.70;;
47219;SDS011;32961;51.936;4.788;2023-03-14T13:46:49;18.40;;;3.15;;
47219;SDS011;32961;51.936;4.788;2023-03-14T13:49:18;17.25;;;2.25;;
47219;SDS011;32961;51.936;4.788;2023-03-14T13:51:49;15.00;;;2.78;;
47219;SDS011;32961;51.936;4.788;2023-03-14T13:54:18;11.38;;;1.80;;
47219;SDS011;32961;51.936;4.788;2023-03-14T13:56:47;10.13;;;2.28;;
47219;SDS011;32961;51.936;4.788;2023-03-14T13:59:23;12.15;;;2.63;;
47219;SDS011;32961;51.936;4.788;2023-03-14T14:01:52;18.92;;;2.53;;
47219;SDS011;32961;51.936;4.788;2023-03-14T14:04:22;29.35;;;3.10;;
47219;SDS011;32961;51.936;4.788;2023-03-14T14:06:53;10.73;;;3.00;;
47219;SDS011;32961;51.936;4.788;2023-03-14T14:09:24;14.77;;;3.45;;
47219;SDS011;32961;51.936;4.788;2023-03-14T14:11:54;14.35;;;2.80;;
47219;SDS011;32961;51.936;4.788;2023-03-14T14:14:43;12.15;;;2.15;;
47219;SDS011;32961;51.936;4.788;2023-03-14T14:17:16;12.38;;;2.40;;
47219;SDS011;32961;51.936;4.788;2023-03-14T14:19:47;9.00;;;1.83;;
47219;SDS011;32961;51.936;4.788;2023-03-14T14:22:16;10.77;;;2.20;;
47219;SDS011;32961;51.936;4.788;2023-03-14T14:24:44;11.23;;;2.58;;
47219;SDS011;32961;51.936;4.788;2023-03-14T14:27:13;17.58;;;2.40;;
47219;SDS011;32961;51.936;4.788;2023-03-14T14:29:44;13.60;;;2.30;;
47219;SDS011;32961;51.936;4.788;2023-03-14T14:32:24;9.65;;;2.42;;
47219;SDS011;32961;51.936;4.788;2023-03-14T14:34:56;11.70;;;2.53;;
47219;SDS011;32961;51.936;4.788;2023-03-14T14:37:26;7.53;;;1.50;;
47219;SDS011;32961;51.936;4.788;2023-03-14T14:39:55;17.33;;;2.22;;
47219;SDS011;32961;51.936;4.788;2023-03-14T14:42:26;13.73;;;2.42;;
47219;SDS011;32961;51.936;4.788;2023-03-14T14:44:58;16.63;;;2.80;;
47219;SDS011;32961;51.936;4.788;2023-03-14T14:47:27;13.23;;;1.98;;
47219;SDS011;32961;51.936;4.788;2023-03-14T14:49:58;10.95;;;2.28;;
47219;SDS011;32961;51.936;4.788;2023-03-14T14:52:33;11.77;;;2.08;;
47219;SDS011;32961;51.936;4.788;2023-03-14T14:55:11;15.80;;;2.47;;
47219;SDS011;32961;51.936;4.788;2023-03-14T14:57:40;10.90;;;1.85;;
47219;SDS011;32961;51.936;4.788;2023-03-14T15:00:19;7.70;;;1.88;;
47219;SDS011;32961;51.936;4.788;2023-03-14T15:02:49;10.13;;;2.60;;
47219;SDS011;32961;51.936;4.788;2023-03-14T15:05:21;15.02;;;2.55;;
47219;SDS011;32961;51.936;4.788;2023-03-14T15:07:50;7.95;;;1.92;;
47219;SDS011;32961;51.936;4.788;2023-03-14T15:10:19;10.40;;;1.63;;
47219;SDS011;32961;51.936;4.788;2023-03-14T15:12:49;11.23;;;2.33;;
47219;SDS011;32961;51.936;4.788;2023-03-14T15:15:18;7.88;;;1.73;;
47219;SDS011;32961;51.936;4.788;2023-03-14T15:17:46;14.15;;;1.92;;